Time;durP1;ratioP1;P1;durP2;ratioP2;P2;SDS_P1;SDS_P2;PMS_P1;PMS_P2;Temp;Humidity;BMP_temperature;BMP_pressure;BME280_temperature;BME280_humidity;BME280_pressure;Samples;Min_cycle;Max_cycle;Signal;HPM_P1;HPM_P2
2023/02/02 00:02:40;;;;;;;9.55;2.47;;;10.40;50.20;;;;;;6123352;29;20484;-64
2023/02/02 00:05:52;;;;;;;6.63;3.00;;;10.40;50.20;;;;;;6123314;29;20047;-63
2023/02/02 00:08:55;;;;;;;4.95;2.25;;;10.40;50.20;;;;;;6121616;28;20028;-63
2023/02/02 00:11:57;;;;;;;7.60;1.83;;;10.50;50.20;;;;;;6123077;29;20028;-62
2023/02/02 00:14:58;;;;;;;5.70;2.13;;;10.40;50.10;;;;;;6122913;29;20055;-62
2023/02/02 00:17:59;;;;;;;9.68;2.50;;;10.40;50.00;;;;;;6122934;29;20032;-63
2023/02/02 00:21:00;;;;;;;7.97;2.55;;;10.40;49.80;;;;;;6121776;29;20051;-62
2023/02/02 00:24:01;;;;;;;6.55;2.35;;;10.40;49.80;;;;;;6122820;28;20044;-62
2023/02/02 00:27:02;;;;;;;6.43;1.58;;;10.40;49.90;;;;;;6122873;29;20035;-64
2023/02/02 00:30:03;;;;;;;5.20;1.98;;;10.40;49.90;;;;;;6121426;29;20858;-62
2023/02/02 00:33:04;;;;;;;7.28;2.33;;;10.40;49.80;;;;;;6122761;29;20027;-62
2023/02/02 00:36:05;;;;;;;7.05;2.55;;;10.40;49.70;;;;;;6137585;28;20373;-63
2023/02/02 00:39:08;;;;;;;5.85;2.55;;;10.40;49.60;;;;;;6247058;28;20056;-63
2023/02/02 00:42:10;;;;;;;9.90;2.65;;;10.50;49.60;;;;;;6247451;28;20116;-62
2023/02/02 00:45:15;;;;;;;4.53;1.90;;;10.50;49.60;;;;;;6210457;28;20090;-62
2023/02/02 00:48:16;;;;;;;11.05;2.60;;;10.40;49.60;;;;;;6122327;29;20070;-63
2023/02/02 00:51:17;;;;;;;5.70;1.80;;;10.50;49.70;;;;;;6135572;29;20472;-63
2023/02/02 00:54:18;;;;;;;9.15;2.45;;;10.40;49.60;;;;;;6122574;29;20179;-63
2023/02/02 00:57:19;;;;;;;4.38;2.42;;;10.40;49.60;;;;;;6122547;28;20034;-64
2023/02/02 01:00:22;;;;;;;10.30;2.03;;;10.40;49.70;;;;;;6121850;28;20040;-62
2023/02/02 01:03:23;;;;;;;12.73;2.70;;;10.40;49.80;;;;;;6125339;29;20023;-63
2023/02/02 01:06:25;;;;;;;4.40;2.05;;;10.40;49.80;;;;;;6125440;28;20043;-62
2023/02/02 01:09:26;;;;;;;4.60;2.00;;;10.40;49.70;;;;;;6126176;29;20036;-62
2023/02/02 01:12:27;;;;;;;6.22;2.13;;;10.40;49.70;;;;;;6125104;29;20404;-63
2023/02/02 01:15:29;;;;;;;4.35;2.13;;;10.40;49.50;;;;;;6126259;28;20106;-63
2023/02/02 01:18:30;;;;;;;5.90;2.08;;;10.40;49.40;;;;;;6126022;29;20039;-63
2023/02/02 01:21:31;;;;;;;5.10;1.88;;;10.30;49.30;;;;;;6126337;28;20621;-63
2023/02/02 01:24:32;;;;;;;9.82;2.10;;;10.30;49.40;;;;;;6126109;29;20042;-63
2023/02/02 01:27:33;;;;;;;5.78;2.30;;;10.20;49.50;;;;;;6124470;29;20118;-63
2023/02/02 01:30:34;;;;;;;10.25;2.33;;;10.30;49.70;;;;;;6124731;29;20038;-62
2023/02/02 01:33:35;;;;;;;13.13;2.72;;;10.20;49.70;;;;;;6124257;28;20036;-63
2023/02/02 01:36:37;;;;;;;10.27;2.20;;;10.20;49.70;;;;;;6161698;28;20018;-62
2023/02/02 01:39:38;;;;;;;6.18;2.38;;;10.20;49.70;;;;;;6250295;28;20033;-62
2023/02/02 01:42:39;;;;;;;5.57;1.70;;;10.20;49.70;;;;;;6180945;28;20086;-63
2023/02/02 01:45:40;;;;;;;9.27;2.05;;;10.30;49.70;;;;;;6124472;28;20036;-63
2023/02/02 01:48:48;;;;;;;8.23;2.15;;;10.30;49.70;;;;;;6125229;28;20471;-63
2023/02/02 01:51:59;;;;;;;8.02;2.00;;;10.20;49.70;;;;;;6124382;29;20073;-63
2023/02/02 01:55:07;;;;;;;2.72;1.52;;;10.20;49.70;;;;;;6124328;29;20060;-64
2023/02/02 01:58:17;;;;;;;11.98;1.50;;;10.20;49.80;;;;;;6125329;29;20048;-62
2023/02/02 02:01:18;;;;;;;4.40;1.90;;;10.20;49.70;;;;;;6125333;28;20035;-63
2023/02/02 02:04:19;;;;;;;3.55;1.80;;;10.10;49.60;;;;;;6124211;29;20628;-62
2023/02/02 02:07:20;;;;;;;3.53;2.10;;;10.10;49.60;;;;;;6125267;29;20039;-62
2023/02/02 02:10:21;;;;;;;3.05;1.55;;;10.00;49.50;;;;;;6125148;29;20518;-63
2023/02/02 02:16:17;;;;;;;7.90;1.60;;;10.00;49.60;;;;;;6123422;28;20042;-62
2023/02/02 02:16:49;;;;;;;4.82;1.80;;;10.00;49.60;;;;;;6123950;29;20024;-62
2023/02/02 02:27:38;;;;;;;6.57;2.15;;;9.90;49.60;;;;;;6147526;29;20031;-62
2023/02/02 02:30:58;;;;;;;2.88;1.60;;;9.90;49.60;;;;;;6147627;28;20024;-62
2023/02/02 02:34:29;;;;;;;5.88;1.80;;;9.90;49.50;;;;;;6147595;28;20038;-62
2023/02/02 02:37:39;;;;;;;13.80;1.52;;;9.80;49.60;;;;;;6133873;28;20039;-62
2023/02/02 02:40:48;;;;;;;5.28;1.55;;;9.80;49.50;;;;;;6123671;29;20031;-62
2023/02/02 02:43:55;;;;;;;5.88;1.58;;;9.80;49.50;;;;;;6123510;29;20038;-63
2023/02/02 02:46:57;;;;;;;4.22;1.75;;;9.80;49.60;;;;;;6107773;29;20120;-62
2023/02/02 02:49:58;;;;;;;5.25;2.05;;;9.80;49.50;;;;;;6116504;28;20028;-63
2023/02/02 02:53:10;;;;;;;3.78;1.48;;;9.80;49.50;;;;;;6124612;29;20078;-63
2023/02/02 02:56:29;;;;;;;5.95;1.60;;;9.70;49.50;;;;;;6123486;29;20086;-62
2023/02/02 02:59:36;;;;;;;;;;;9.70;49.60;;;;;;6124782;29;20487;-62
2023/02/02 03:03:08;;;;;;;2.90;1.58;;;9.70;49.50;;;;;;6124513;28;19946;-61
2023/02/02 03:06:31;;;;;;;6.30;1.63;;;9.60;49.40;;;;;;6125373;29;20039;-62
2023/02/02 03:09:38;;;;;;;4.15;2.25;;;9.60;49.30;;;;;;6122849;29;20036;-62
2023/02/02 03:12:47;;;;;;;6.53;1.75;;;9.50;49.30;;;;;;6124137;29;20134;-62
2023/02/02 03:15:48;;;;;;;5.70;1.70;;;9.50;49.30;;;;;;6124390;29;20031;-63
2023/02/02 03:18:49;;;;;;;5.95;1.75;;;9.40;49.30;;;;;;6123897;28;20032;-63
2023/02/02 03:21:50;;;;;;;5.43;2.20;;;9.40;49.40;;;;;;6122779;29;20427;-63
2023/02/02 03:24:51;;;;;;;3.80;2.00;;;9.40;49.40;;;;;;6122919;29;20040;-63
2023/02/02 03:27:53;;;;;;;4.15;1.90;;;9.30;49.50;;;;;;6123889;29;20038;-62
2023/02/02 03:30:54;;;;;;;3.15;1.98;;;9.30;49.50;;;;;;6122624;29;20476;-62
2023/02/02 03:33:55;;;;;;;5.65;1.98;;;9.30;49.60;;;;;;6123709;28;20061;-62
2023/02/02 03:36:56;;;;;;;5.40;1.92;;;9.20;49.60;;;;;;6107004;28;20027;-62
2023/02/02 03:39:57;;;;;;;4.20;1.88;;;9.20;49.70;;;;;;6123436;29;20031;-63
2023/02/02 03:42:58;;;;;;;4.43;1.88;;;9.20;49.80;;;;;;6123788;29;20035;-63
2023/02/02 03:46:03;;;;;;;4.22;2.00;;;9.20;49.90;;;;;;6123813;28;20027;-61
2023/02/02 03:49:03;;;;;;;2.78;1.52;;;9.10;50.00;;;;;;6117206;29;20476;-61
2023/02/02 03:52:04;;;;;;;6.95;1.95;;;9.10;50.00;;;;;;6117697;28;20081;-62
2023/02/02 03:55:06;;;;;;;4.88;1.88;;;9.10;50.00;;;;;;6122089;28;20032;-62
2023/02/02 03:58:06;;;;;;;4.10;1.85;;;9.10;50.10;;;;;;6123195;29;20490;-62
2023/02/02 04:01:12;;;;;;;5.18;2.28;;;9.00;50.10;;;;;;6122999;29;20043;-62
2023/02/02 04:04:12;;;;;;;10.48;2.20;;;8.90;50.20;;;;;;6123315;29;20036;-63
2023/02/02 04:07:14;;;;;;;4.13;1.98;;;8.90;50.30;;;;;;6121795;28;20042;-62
2023/02/02 04:10:16;;;;;;;4.93;2.38;;;8.80;50.30;;;;;;6122932;29;20093;-63
2023/02/02 04:13:17;;;;;;;5.13;2.30;;;8.80;50.50;;;;;;6121933;29;20032;-61
2023/02/02 04:16:18;;;;;;;10.40;2.05;;;8.80;50.60;;;;;;6123373;29;20464;-62
2023/02/02 04:19:19;;;;;;;5.82;2.05;;;8.80;50.70;;;;;;6124554;29;20044;-63
2023/02/02 04:22:20;;;;;;;5.10;2.00;;;8.80;50.80;;;;;;6123876;29;20097;-61
2023/02/02 04:25:20;;;;;;;5.93;1.95;;;8.80;50.80;;;;;;6123470;29;20043;-64
2023/02/02 04:28:22;;;;;;;10.38;2.80;;;8.80;50.90;;;;;;6122843;29;20032;-62
2023/02/02 04:31:23;;;;;;;8.27;2.55;;;8.80;50.90;;;;;;6122570;28;20085;-62
2023/02/02 04:34:24;;;;;;;4.80;2.08;;;8.80;51.00;;;;;;6121724;28;20426;-63
2023/02/02 04:37:25;;;;;;;4.75;1.92;;;8.80;51.00;;;;;;6122236;29;20365;-64
2023/02/02 04:40:26;;;;;;;5.55;2.17;;;8.70;51.10;;;;;;6121509;28;20032;-63
2023/02/02 04:43:27;;;;;;;7.03;3.10;;;8.70;51.20;;;;;;6122731;29;20364;-62
2023/02/02 04:46:28;;;;;;;8.10;2.55;;;8.60;51.30;;;;;;6122737;28;20482;-63
2023/02/02 04:49:29;;;;;;;4.30;2.42;;;8.60;51.30;;;;;;6114210;29;20115;-62
2023/02/02 04:52:30;;;;;;;8.20;2.53;;;8.60;51.50;;;;;;6120289;28;20077;-63
2023/02/02 04:55:35;;;;;;;8.45;2.47;;;8.60;51.70;;;;;;6121346;29;20471;-63
2023/02/02 04:58:36;;;;;;;4.57;2.30;;;8.60;51.70;;;;;;6122006;29;20495;-63
2023/02/02 05:01:37;;;;;;;6.18;3.15;;;8.50;51.70;;;;;;6122169;29;20027;-62
2023/02/02 05:04:38;;;;;;;6.32;2.05;;;8.50;51.80;;;;;;6121133;29;20039;-63
2023/02/02 05:07:41;;;;;;;3.88;2.15;;;8.50;51.90;;;;;;6120821;29;20032;-62
2023/02/02 05:10:42;;;;;;;12.18;2.80;;;8.40;51.80;;;;;;6121064;29;20055;-63
2023/02/02 05:13:48;;;;;;;5.57;2.00;;;8.40;51.90;;;;;;6120809;29;20073;-65
2023/02/02 05:16:48;;;;;;;3.97;1.88;;;8.40;52.00;;;;;;6089792;29;20032;-64
2023/02/02 05:19:49;;;;;;;4.22;2.25;;;8.40;52.10;;;;;;6120632;29;20503;-65
2023/02/02 05:22:50;;;;;;;9.10;2.38;;;8.40;52.10;;;;;;6122097;29;20448;-64
2023/02/02 05:25:52;;;;;;;10.20;2.15;;;8.40;52.20;;;;;;6121984;29;20127;-63
2023/02/02 05:28:53;;;;;;;5.45;2.30;;;8.40;52.20;;;;;;6104711;29;20055;-61
2023/02/02 05:31:55;;;;;;;5.38;2.40;;;8.40;52.30;;;;;;6122711;29;20024;-64
2023/02/02 05:34:56;;;;;;;4.25;2.35;;;8.40;52.30;;;;;;6127006;29;20093;-62
2023/02/02 05:37:56;;;;;;;6.68;2.00;;;8.40;52.30;;;;;;6122011;28;20032;-62
2023/02/02 05:40:57;;;;;;;8.68;2.20;;;8.40;52.50;;;;;;6121760;29;20035;-62
2023/02/02 05:43:59;;;;;;;7.97;2.88;;;8.30;52.70;;;;;;6120305;29;20547;-62
2023/02/02 05:46:59;;;;;;;5.80;2.28;;;8.30;52.60;;;;;;6121933;28;20448;-64
2023/02/02 05:50:01;;;;;;;10.40;2.47;;;8.30;52.60;;;;;;6114606;28;20062;-63
2023/02/02 05:53:02;;;;;;;7.95;2.90;;;8.20;52.60;;;;;;6108551;29;20040;-63
2023/02/02 05:56:03;;;;;;;12.25;2.50;;;8.30;52.70;;;;;;6124063;29;20039;-62
2023/02/02 05:59:06;;;;;;;4.85;2.53;;;8.30;52.80;;;;;;6123787;29;20486;-62
2023/02/02 06:02:07;;;;;;;6.60;2.45;;;8.20;52.80;;;;;;6125390;29;20497;-64
2023/02/02 06:05:08;;;;;;;6.13;2.00;;;8.20;52.80;;;;;;6124082;29;20040;-62
2023/02/02 06:08:09;;;;;;;4.95;2.38;;;8.30;53.00;;;;;;6123736;29;20123;-65
2023/02/02 06:11:15;;;;;;;3.08;2.08;;;8.20;53.00;;;;;;6123978;29;20028;-62
2023/02/02 06:14:16;;;;;;;4.88;2.25;;;8.20;53.00;;;;;;6108191;29;20079;-63
2023/02/02 06:17:17;;;;;;;5.68;2.20;;;8.20;53.00;;;;;;6125313;29;20031;-64
2023/02/02 06:20:18;;;;;;;7.13;2.75;;;8.20;53.00;;;;;;6123189;29;20027;-63
2023/02/02 06:23:19;;;;;;;6.55;2.45;;;8.20;53.00;;;;;;6123786;28;20441;-63
2023/02/02 06:26:20;;;;;;;9.75;2.38;;;8.20;53.00;;;;;;6123335;28;20032;-65
2023/02/02 06:29:21;;;;;;;9.05;2.40;;;8.10;53.00;;;;;;6123862;28;20032;-63
2023/02/02 06:32:21;;;;;;;4.20;2.25;;;8.10;53.10;;;;;;6124951;29;20058;-63
2023/02/02 06:35:22;;;;;;;10.38;2.45;;;8.10;53.20;;;;;;6124985;28;20032;-64
2023/02/02 06:38:23;;;;;;;9.23;3.22;;;8.10;53.30;;;;;;6124815;28;20467;-64
2023/02/02 06:41:24;;;;;;;9.63;2.92;;;8.00;53.30;;;;;;6124917;29;20027;-64
2023/02/02 06:44:26;;;;;;;10.43;2.10;;;8.10;53.40;;;;;;6123089;29;20044;-65
2023/02/02 06:47:27;;;;;;;13.15;3.25;;;8.10;53.40;;;;;;6122767;29;20074;-64
2023/02/02 06:50:28;;;;;;;4.70;2.92;;;8.10;53.50;;;;;;6123958;28;20038;-63
2023/02/02 06:53:29;;;;;;;7.00;2.67;;;8.10;53.60;;;;;;6122805;29;20040;-63
2023/02/02 06:56:30;;;;;;;13.10;5.88;;;8.10;54.10;;;;;;6124312;29;20032;-64
2023/02/02 06:59:31;;;;;;;6.65;2.33;;;8.10;53.50;;;;;;6123547;29;20464;-63
2023/02/02 07:02:31;;;;;;;4.75;2.15;;;8.10;53.60;;;;;;6124355;29;20036;-63
2023/02/02 07:05:32;;;;;;;9.38;2.85;;;8.20;53.60;;;;;;6122702;29;20044;-64
2023/02/02 07:08:33;;;;;;;9.48;3.22;;;8.20;53.50;;;;;;6122471;29;20043;-64
2023/02/02 07:11:36;;;;;;;9.10;3.42;;;8.30;53.40;;;;;;6122634;29;20032;-61
2023/02/02 07:14:37;;;;;;;10.23;3.97;;;8.20;53.30;;;;;;6123907;29;20043;-64
2023/02/02 07:17:38;;;;;;;7.38;2.65;;;8.30;53.30;;;;;;6123626;29;20074;-62
2023/02/02 07:20:39;;;;;;;12.32;3.65;;;8.30;53.30;;;;;;6123667;28;20032;-63
2023/02/02 07:23:40;;;;;;;9.20;3.75;;;8.40;53.90;;;;;;6123622;29;20032;-62
2023/02/02 07:26:41;;;;;;;7.78;3.67;;;8.40;53.30;;;;;;6122882;29;20058;-63
2023/02/02 07:29:42;;;;;;;11.10;3.58;;;8.40;53.20;;;;;;6124437;29;20031;-63
2023/02/02 07:32:49;;;;;;;11.73;3.45;;;8.40;53.30;;;;;;6123378;29;20738;-63
2023/02/02 07:35:50;;;;;;;6.87;3.30;;;8.40;53.20;;;;;;6124296;29;20488;-63
2023/02/02 07:38:53;;;;;;;15.55;3.00;;;8.50;53.30;;;;;;6122510;28;20280;-63
2023/02/02 07:41:54;;;;;;;8.02;3.47;;;8.50;53.20;;;;;;6123305;29;20453;-63
2023/02/02 07:45:05;;;;;;;6.85;3.30;;;8.50;53.10;;;;;;6121555;28;20035;-63
2023/02/02 07:48:06;;;;;;;11.10;3.55;;;8.50;53.10;;;;;;6121287;29;20040;-64
2023/02/02 07:51:13;;;;;;;6.20;3.17;;;8.50;53.10;;;;;;6112319;28;20386;-65
2023/02/02 07:54:14;;;;;;;7.13;3.33;;;8.50;53.10;;;;;;6121700;29;20032;-65
2023/02/02 07:57:18;;;;;;;8.55;2.88;;;8.50;53.10;;;;;;6122595;29;20024;-64
2023/02/02 08:00:20;;;;;;;5.53;3.30;;;8.60;53.10;;;;;;6122922;29;20044;-63
2023/02/02 08:03:21;;;;;;;8.10;3.50;;;8.60;53.00;;;;;;6125162;29;20043;-63
2023/02/02 08:06:25;;;;;;;12.15;3.88;;;8.70;53.00;;;;;;6124107;29;20115;-62
2023/02/02 08:09:25;;;;;;;11.85;4.03;;;8.80;53.00;;;;;;6121911;28;20101;-63
2023/02/02 08:12:27;;;;;;;15.90;3.72;;;8.80;52.90;;;;;;6122339;29;20032;-63
2023/02/02 08:15:27;;;;;;;11.10;3.78;;;8.80;52.80;;;;;;6120920;28;20028;-64
2023/02/02 08:18:28;;;;;;;9.85;3.80;;;8.80;52.80;;;;;;6122269;29;20395;-64
2023/02/02 08:21:33;;;;;;;9.80;3.53;;;8.90;52.80;;;;;;6121273;28;20047;-62
2023/02/02 08:24:39;;;;;;;9.93;4.15;;;9.00;52.70;;;;;;6122741;29;20549;-64
2023/02/02 08:27:40;;;;;;;15.43;4.65;;;9.00;52.60;;;;;;6121854;29;20067;-63
2023/02/02 08:30:40;;;;;;;18.48;4.47;;;9.10;52.40;;;;;;6122274;29;20038;-65
2023/02/02 08:33:41;;;;;;;11.48;4.97;;;9.20;52.40;;;;;;6122336;29;20019;-64
2023/02/02 08:36:42;;;;;;;21.00;5.05;;;9.30;52.30;;;;;;6120971;28;20028;-63
2023/02/02 08:39:43;;;;;;;9.50;4.05;;;9.40;52.10;;;;;;6121952;29;20036;-63
2023/02/02 08:42:46;;;;;;;15.02;3.55;;;9.40;51.90;;;;;;6121911;29;20098;-64
2023/02/02 08:45:49;;;;;;;8.82;4.60;;;9.40;51.80;;;;;;6122070;29;20036;-64
2023/02/02 08:48:50;;;;;;;14.00;4.05;;;9.50;51.80;;;;;;6118385;29;20401;-63
2023/02/02 08:51:50;;;;;;;7.72;3.90;;;9.50;51.70;;;;;;6114031;28;20031;-64
2023/02/02 08:54:51;;;;;;;14.38;4.32;;;9.60;51.60;;;;;;6121434;29;20134;-64
2023/02/02 08:57:52;;;;;;;11.80;4.28;;;9.70;51.40;;;;;;6119835;28;20097;-64
2023/02/02 09:00:53;;;;;;;12.25;4.32;;;9.70;51.30;;;;;;6119844;28;20047;-64
2023/02/02 09:04:00;;;;;;;11.80;4.70;;;9.80;51.10;;;;;;6120260;29;20468;-64
2023/02/02 09:07:01;;;;;;;14.98;4.80;;;9.80;51.00;;;;;;6121722;29;20059;-64
2023/02/02 09:10:02;;;;;;;20.67;4.60;;;9.90;50.90;;;;;;6119757;29;20036;-64
2023/02/02 09:13:03;;;;;;;9.95;4.65;;;10.00;50.90;;;;;;6120049;28;20031;-64
2023/02/02 09:16:06;;;;;;;7.90;4.38;;;10.00;50.90;;;;;;6121807;29;20032;-66
2023/02/02 09:19:07;;;;;;;11.18;5.10;;;10.10;50.80;;;;;;6120257;28;20050;-64
2023/02/02 09:22:08;;;;;;;15.30;6.07;;;10.20;50.60;;;;;;6121291;29;20035;-64
2023/02/02 09:25:09;;;;;;;28.33;7.28;;;10.30;50.50;;;;;;6125811;29;20070;-65
2023/02/02 09:28:09;;;;;;;16.48;6.50;;;10.40;50.50;;;;;;6125379;29;20717;-63
2023/02/02 09:31:11;;;;;;;13.52;5.20;;;10.50;50.20;;;;;;6125609;28;20098;-64
2023/02/02 09:34:13;;;;;;;12.73;5.03;;;10.60;50.10;;;;;;6125742;28;20035;-64
2023/02/02 09:37:14;;;;;;;11.38;4.45;;;10.70;50.00;;;;;;6125429;29;20579;-63
2023/02/02 09:40:19;;;;;;;10.48;4.93;;;10.70;49.70;;;;;;6125570;29;20040;-63
2023/02/02 09:43:29;;;;;;;8.73;4.45;;;10.80;49.70;;;;;;6125280;28;20039;-63
2023/02/02 09:47:03;;;;;;;8.82;4.10;;;10.80;49.50;;;;;;6125508;28;20067;-64
2023/02/02 09:50:30;;;;;;;9.50;4.45;;;10.90;49.30;;;;;;6114271;29;20573;-64
2023/02/02 09:53:51;;;;;;;13.65;4.13;;;10.90;49.30;;;;;;6125137;29;20019;-63
2023/02/02 09:56:56;;;;;;;16.95;4.18;;;11.00;49.10;;;;;;6125079;29;20047;-64
2023/02/02 09:59:57;;;;;;;10.57;4.72;;;10.90;48.90;;;;;;6123366;29;20039;-64
2023/02/02 10:03:12;;;;;;;10.02;4.78;;;11.00;49.10;;;;;;6123685;28;20071;-63
2023/02/02 10:06:34;;;;;;;19.38;5.45;;;11.00;49.10;;;;;;6123345;28;20066;-63
2023/02/02 10:09:46;;;;;;;13.05;5.32;;;11.10;49.00;;;;;;6123373;28;20050;-64
2023/02/02 10:13:04;;;;;;;18.73;5.78;;;11.20;48.80;;;;;;6123813;28;20479;-64
2023/02/02 10:16:17;;;;;;;15.63;5.20;;;11.20;48.70;;;;;;6124986;29;20027;-63
2023/02/02 10:19:19;;;;;;;11.20;4.03;;;11.30;48.70;;;;;;6124579;29;20082;-64
2023/02/02 10:22:26;;;;;;;21.08;5.43;;;11.50;48.30;;;;;;6128876;29;20027;-64
2023/02/02 10:25:28;;;;;;;12.52;4.55;;;11.70;48.10;;;;;;6124045;28;20032;-63
2023/02/02 10:28:54;;;;;;;22.30;5.78;;;12.00;47.60;;;;;;6123964;29;20031;-63
2023/02/02 10:32:13;;;;;;;26.13;4.90;;;12.30;47.00;;;;;;6123056;29;20032;-64
2023/02/02 10:35:52;;;;;;;21.50;6.15;;;12.70;46.40;;;;;;6123762;29;20035;-64
2023/02/02 10:39:06;;;;;;;13.02;5.80;;;12.90;45.80;;;;;;6124332;29;20091;-64
2023/02/02 10:42:10;;;;;;;7.57;3.90;;;13.00;45.60;;;;;;6124457;28;20055;-64
2023/02/02 10:45:19;;;;;;;11.02;4.20;;;13.20;45.60;;;;;;6124543;29;20039;-63
2023/02/02 10:48:27;;;;;;;10.50;4.18;;;13.30;45.10;;;;;;6122755;28;20040;-64
2023/02/02 10:51:28;;;;;;;;;;;13.50;44.80;;;;;;6194364;28;20053;-64
2023/02/02 10:54:48;;;;;;;9.63;3.88;;;13.70;44.10;;;;;;6247443;28;19909;-63
2023/02/02 10:57:57;;;;;;;22.40;3.80;;;13.90;43.70;;;;;;6248054;28;20528;-66
2023/02/02 11:01:00;;;;;;;10.88;3.63;;;14.10;43.60;;;;;;6248029;28;20099;-66
2023/02/02 11:07:20;;;;;;;8.57;3.70;;;14.40;42.60;;;;;;6122173;29;20104;-64
2023/02/02 11:10:21;;;;;;;11.70;3.65;;;14.70;42.30;;;;;;6123354;29;20036;-62
2023/02/02 11:13:31;;;;;;;13.80;3.38;;;15.00;41.90;;;;;;6106626;28;20487;-63
2023/02/02 11:16:37;;;;;;;9.35;3.63;;;15.20;41.30;;;;;;6122375;28;20043;-63
2023/02/02 11:19:38;;;;;;;10.75;3.17;;;15.50;40.70;;;;;;6106569;28;20384;-63
2023/02/02 11:22:39;;;;;;;14.07;3.80;;;15.80;39.80;;;;;;6123410;29;20050;-64
2023/02/02 11:25:42;;;;;;;11.65;3.20;;;16.00;39.30;;;;;;6122174;29;20028;-64
2023/02/02 11:28:43;;;;;;;11.95;4.00;;;16.30;39.00;;;;;;6123179;29;20036;-64
2023/02/02 11:31:44;;;;;;;7.57;3.55;;;16.80;38.30;;;;;;6123596;28;20483;-65
2023/02/02 11:34:44;;;;;;;12.85;4.13;;;17.20;37.70;;;;;;6123626;29;20073;-63
2023/02/02 11:38:12;;;;;;;11.63;4.70;;;17.50;37.00;;;;;;6122362;29;20031;-64
2023/02/02 11:41:15;;;;;;;8.65;3.45;;;18.00;36.50;;;;;;6105864;28;20043;-63
2023/02/02 11:44:24;;;;;;;6.90;2.97;;;18.40;35.40;;;;;;6122933;28;20442;-63
2023/02/02 11:47:31;;;;;;;11.20;3.67;;;18.80;34.60;;;;;;6122587;29;20108;-64
2023/02/02 11:50:32;;;;;;;8.25;3.88;;;19.10;34.00;;;;;;6112037;28;20206;-63
2023/02/02 11:53:47;;;;;;;11.73;3.40;;;19.40;33.30;;;;;;6122798;29;20054;-65
2023/02/02 11:56:54;;;;;;;10.57;3.30;;;19.70;32.80;;;;;;6121307;28;20036;-63
2023/02/02 12:00:27;;;;;;;8.02;3.13;;;19.90;32.40;;;;;;6122532;28;20039;-64
2023/02/02 12:03:31;;;;;;;7.85;2.85;;;20.10;31.90;;;;;;6072979;29;20041;-63
2023/02/02 12:06:32;;;;;;;5.68;2.95;;;20.50;31.20;;;;;;6042329;29;20044;-64
2023/02/02 12:09:32;;;;;;;5.68;2.67;;;20.70;30.40;;;;;;6072980;29;20436;-63
2023/02/02 12:12:41;;;;;;;7.38;2.50;;;20.80;29.90;;;;;;6073031;29;20041;-64
2023/02/02 12:16:09;;;;;;;15.07;2.70;;;20.60;30.00;;;;;;6072374;29;20393;-63
2023/02/02 12:19:21;;;;;;;6.75;2.97;;;20.30;30.00;;;;;;6056940;29;20461;-63
2023/02/02 12:22:24;;;;;;;12.02;2.92;;;20.20;30.00;;;;;;6072609;29;20143;-62
2023/02/02 12:25:35;;;;;;;7.53;2.47;;;19.90;30.50;;;;;;6056742;28;20512;-64
2023/02/02 12:28:54;;;;;;;4.85;2.08;;;19.50;30.80;;;;;;6072332;29;20037;-64
2023/02/02 12:32:04;;;;;;;;;;;19.10;31.20;;;;;;6073154;29;20067;-63
2023/02/02 12:35:20;;;;;;;;;;;18.80;31.50;;;;;;6072670;29;19922;-64
2023/02/02 12:38:53;;;;;;;16.75;2.30;;;18.50;32.00;;;;;;6077356;29;19919;-63
2023/02/02 12:42:14;;;;;;;5.40;1.45;;;18.20;32.00;;;;;;6056805;29;20063;-64
2023/02/02 12:45:36;;;;;;;4.55;1.40;;;17.70;32.50;;;;;;6072300;29;20053;-65
2023/02/02 12:49:11;;;;;;;6.03;1.90;;;17.40;33.10;;;;;;6041917;29;20043;-64
2023/02/02 12:52:24;;;;;;;6.05;1.50;;;17.10;33.00;;;;;;6064448;29;20412;-65
2023/02/02 12:55:42;;;;;;;7.43;1.77;;;16.90;33.30;;;;;;6048848;29;20083;-64
2023/02/02 12:58:57;;;;;;;3.47;1.45;;;16.80;33.60;;;;;;6069415;29;20511;-63
2023/02/02 13:02:10;;;;;;;6.22;1.20;;;16.80;33.90;;;;;;6072910;29;20083;-64
2023/02/02 13:05:22;;;;;;;14.80;1.42;;;16.80;34.10;;;;;;6060929;29;20040;-64
2023/02/02 13:08:50;;;;;;;4.20;1.35;;;16.60;34.20;;;;;;6072984;29;20052;-63
2023/02/02 13:11:53;;;;;;;13.95;1.70;;;16.30;34.50;;;;;;6056319;29;20140;-64
2023/02/02 13:15:00;;;;;;;13.25;1.25;;;16.10;35.00;;;;;;6040668;29;20089;-64
2023/02/02 13:18:45;;;;;;;3.95;1.55;;;15.90;35.30;;;;;;6073684;29;20086;-64
2023/02/02 13:21:47;;;;;;;5.28;1.10;;;15.80;35.70;;;;;;6129598;29;20474;-65
2023/02/02 13:24:52;;;;;;;4.25;1.02;;;15.70;35.80;;;;;;6129686;29;20043;-63
2023/02/02 13:27:53;;;;;;;6.28;1.13;;;15.50;36.00;;;;;;6145195;29;20135;-64
2023/02/02 13:30:58;;;;;;;9.93;1.52;;;15.40;36.30;;;;;;6145348;28;20496;-63
2023/02/02 13:34:38;;;;;;;6.70;1.10;;;15.30;36.60;;;;;;6145453;29;20542;-63
2023/02/02 13:37:39;;;;;;;1.73;0.95;;;15.20;36.80;;;;;;6145363;29;20569;-64
2023/02/02 13:40:42;;;;;;;9.00;1.08;;;15.20;36.90;;;;;;6129130;29;20036;-65
2023/02/02 13:43:53;;;;;;;12.45;1.30;;;15.20;36.90;;;;;;6129339;29;20035;-65
2023/02/02 13:47:01;;;;;;;7.60;1.45;;;15.20;36.80;;;;;;6145367;29;20440;-64
2023/02/02 13:50:13;;;;;;;4.57;1.23;;;15.20;36.90;;;;;;6157385;28;20042;-63
2023/02/02 13:53:54;;;;;;;10.43;0.90;;;15.20;37.00;;;;;;6126422;28;20411;-63
2023/02/02 13:57:01;;;;;;;15.13;1.17;;;15.20;37.10;;;;;;6121086;29;20020;-64
2023/02/02 14:00:12;;;;;;;14.77;1.27;;;15.10;37.10;;;;;;6119378;29;20039;-64
2023/02/02 14:03:37;;;;;;;5.07;0.77;;;15.10;37.20;;;;;;6121102;29;20392;-64
2023/02/02 14:06:56;;;;;;;15.15;1.50;;;15.00;37.30;;;;;;6120973;29;20118;-64
2023/02/02 14:09:57;;;;;;;15.90;1.50;;;15.00;37.40;;;;;;6123195;29;20027;-64
2023/02/02 14:13:05;;;;;;;10.43;0.80;;;15.10;37.40;;;;;;6123477;29;20166;-63
2023/02/02 14:16:18;;;;;;;5.57;1.48;;;15.10;37.40;;;;;;6123267;28;20043;-64
2023/02/02 14:19:34;;;;;;;6.10;1.42;;;15.20;37.30;;;;;;6124281;28;20035;-64
2023/02/02 14:22:50;;;;;;;10.40;1.73;;;15.20;37.20;;;;;;6123278;29;20036;-65
2023/02/02 14:26:09;;;;;;;6.82;1.25;;;15.20;37.10;;;;;;6124647;29;20430;-63
2023/02/02 14:29:31;;;;;;;3.83;1.10;;;15.20;37.10;;;;;;6124125;29;20039;-64
2023/02/02 14:32:41;;;;;;;9.02;0.88;;;15.20;37.10;;;;;;6123338;29;20043;-63
2023/02/02 14:35:45;;;;;;;6.55;1.67;;;15.20;37.10;;;;;;6124472;29;20036;-64
2023/02/02 14:38:56;;;;;;;3.20;0.90;;;15.10;37.20;;;;;;6124132;29;20122;-63
2023/02/02 14:46:11;;;;;;;9.73;1.27;;;15.10;37.20;;;;;;6097868;29;20051;-63
2023/02/02 14:49:15;;;;;;;5.40;1.13;;;15.10;37.30;;;;;;6081159;29;20099;-63
2023/02/02 14:52:22;;;;;;;2.42;1.17;;;15.20;37.20;;;;;;6097409;29;20032;-63
2023/02/02 14:55:24;;;;;;;14.68;1.45;;;15.10;37.30;;;;;;6097520;29;20063;-64
2023/02/02 14:58:35;;;;;;;4.38;0.90;;;15.10;37.50;;;;;;6097396;29;20043;-63
2023/02/02 15:01:37;;;;;;;7.10;1.08;;;15.10;37.40;;;;;;6097723;29;20131;-63
2023/02/02 15:04:40;;;;;;;2.38;1.20;;;15.10;37.40;;;;;;6097563;29;20052;-64
2023/02/02 15:07:51;;;;;;;7.82;1.70;;;15.10;37.50;;;;;;6097048;28;20171;-64
2023/02/02 15:14:41;;;;;;;4.20;1.50;;;15.00;37.60;;;;;;6097251;29;20040;-64
2023/02/02 15:17:57;;;;;;;8.30;1.55;;;15.00;37.80;;;;;;6097204;29;20044;-63
2023/02/02 15:21:00;;;;;;;6.72;1.85;;;15.00;37.90;;;;;;6123321;29;20043;-63
2023/02/02 15:24:03;;;;;;;4.18;1.08;;;14.90;37.90;;;;;;6122272;29;20028;-64
2023/02/02 15:27:07;;;;;;;6.80;1.52;;;14.90;37.90;;;;;;6123480;29;20030;-64
2023/02/02 15:30:12;;;;;;;6.38;1.10;;;14.90;38.00;;;;;;6122429;29;20032;-64
2023/02/02 15:33:35;;;;;;;4.50;1.00;;;14.80;38.20;;;;;;6123661;29;20089;-62
2023/02/02 15:36:42;;;;;;;8.88;1.90;;;14.60;38.40;;;;;;6106381;28;20495;-64
2023/02/02 15:39:50;;;;;;;9.95;1.48;;;14.50;38.60;;;;;;6122977;29;20487;-65
2023/02/02 15:42:53;;;;;;;;;;;14.40;38.90;;;;;;6106680;28;20040;-64
2023/02/02 15:46:05;;;;;;;6.85;1.17;;;14.30;39.10;;;;;;6121846;28;20013;-63
2023/02/02 15:49:18;;;;;;;10.93;1.48;;;14.30;39.30;;;;;;6116475;29;20412;-64
2023/02/02 15:52:36;;;;;;;6.47;1.52;;;14.20;39.60;;;;;;6222215;28;20108;-63
2023/02/02 15:55:37;;;;;;;3.60;1.65;;;14.10;39.90;;;;;;6247063;28;20076;-64
2023/02/02 15:58:40;;;;;;;8.63;1.33;;;14.10;40.10;;;;;;6246476;28;20037;-66
2023/02/02 16:01:48;;;;;;;11.75;1.95;;;14.00;40.30;;;;;;6246880;28;20363;-63
2023/02/02 16:04:48;;;;;;;12.32;2.08;;;14.00;40.40;;;;;;6247284;28;20060;-64
2023/02/02 16:07:50;;;;;;;20.40;1.98;;;14.00;40.60;;;;;;6245398;28;20112;-64
2023/02/02 16:11:02;;;;;;;7.70;1.38;;;13.90;40.80;;;;;;6245231;28;20040;-63
2023/02/02 16:14:05;;;;;;;7.35;1.70;;;13.80;41.00;;;;;;6246089;28;20097;-64
2023/02/02 16:17:31;;;;;;;9.10;1.85;;;13.80;41.20;;;;;;6248019;28;20048;-63
2023/02/02 16:20:34;;;;;;;5.97;1.70;;;13.70;41.30;;;;;;6170995;28;20109;-62
2023/02/02 16:23:37;;;;;;;1.73;1.33;;;13.60;41.50;;;;;;6171064;28;20110;-65
2023/02/02 16:26:38;;;;;;;5.55;1.58;;;13.50;41.60;;;;;;6154741;28;20038;-63
2023/02/02 16:29:41;;;;;;;4.63;1.27;;;13.50;42.00;;;;;;6153745;28;20085;-65
2023/02/02 16:32:43;;;;;;;12.75;1.73;;;13.50;41.90;;;;;;6169605;28;20046;-64